createdAt,value
2019-06-01T00:02:07.400Z,98728.85
2019-06-01T00:04:36.905Z,98731.37
2019-06-01T00:07:06.269Z,98726.36
2019-06-01T00:09:35.660Z,98727.16
2019-06-01T00:12:05.142Z,98723.54
2019-06-01T00:14:34.571Z,98726.30
2019-06-01T00:17:03.947Z,98722.36
2019-06-01T00:19:33.433Z,98725.25
2019-06-01T00:22:02.932Z,98720.80
2019-06-01T00:24:32.285Z,98723.27
2019-06-01T00:27:01.715Z,98721.73
2019-06-01T00:29:31.093Z,98721.91
2019-06-01T00:32:00.480Z,98713.86
2019-06-01T00:34:29.896Z,98712.44
2019-06-01T00:36:59.287Z,98716.82
2019-06-01T00:39:28.707Z,98712.26
2019-06-01T00:41:58.074Z,98712.02
2019-06-01T00:44:27.538Z,98713.83
2019-06-01T00:46:56.958Z,98708.28
2019-06-01T00:49:26.327Z,98710.47
2019-06-01T00:51:55.723Z,98718.11
2019-06-01T00:54:25.271Z,98722.67
2019-06-01T00:56:54.835Z,98723.72
2019-06-01T00:59:24.270Z,98724.90
2019-06-01T01:01:54.261Z,98722.18
2019-06-01T01:04:24.015Z,98725.39
2019-06-01T01:06:54.693Z,98718.30
2019-06-01T01:09:24.242Z,98722.46
2019-06-01T01:11:53.718Z,98716.05
2019-06-01T01:14:23.088Z,98720.19
2019-06-01T01:16:54.020Z,98714.75
2019-06-01T01:19:23.550Z,98717.56
2019-06-01T01:21:54.054Z,98719.11
2019-06-01T01:24:23.525Z,98717.66
2019-06-01T01:26:52.915Z,98716.20
2019-06-01T01:29:22.318Z,98714.45
2019-06-01T01:31:51.747Z,98718.52
2019-06-01T01:34:21.177Z,98716.77
2019-06-01T01:36:52.566Z,98719.23
2019-06-01T01:39:21.762Z,98717.96
2019-06-01T01:41:52.150Z,98712.63
2019-06-01T01:44:24.680Z,98719.41
2019-06-01T01:46:54.881Z,98716.48
2019-06-01T01:49:24.402Z,98713.58
2019-06-01T01:51:53.806Z,98712.22
2019-06-01T01:54:23.183Z,98722.30
2019-06-01T01:56:54.046Z,98715.88
2019-06-01T01:59:23.534Z,98721.55
2019-06-01T02:01:54.540Z,98716.47
2019-06-01T02:04:24.064Z,98715.23
2019-06-01T02:06:53.956Z,98711.73
2019-06-01T02:09:23.501Z,98712.54
2019-06-01T02:11:53.425Z,98718.82
2019-06-01T02:14:22.966Z,98720.40
2019-06-01T02:16:52.374Z,98713.67
2019-06-01T02:19:21.904Z,98722.31
2019-06-01T02:21:52.349Z,98724.27
2019-06-01T02:24:21.823Z,98716.20
2019-06-01T02:26:51.257Z,98718.05
2019-06-01T02:29:20.705Z,98702.64
2019-06-01T02:31:50.087Z,98706.54
2019-06-01T02:34:19.476Z,98704.63
2019-06-01T02:36:48.881Z,98705.02
2019-06-01T02:39:18.519Z,98709.33
2019-06-01T02:41:47.933Z,98707.97
2019-06-01T02:44:17.298Z,98702.30
2019-06-01T02:46:46.798Z,98706.12
2019-06-01T02:49:16.195Z,98705.64
2019-06-01T02:51:45.559Z,98700.75
2019-06-01T02:54:14.984Z,98702.12
2019-06-01T02:56:44.334Z,98696.69
2019-06-01T02:59:13.739Z,98697.87
2019-06-01T03:01:56.669Z,98701.14
2019-06-01T03:04:17.189Z,98699.25
2019-06-01T03:06:48.120Z,98704.34
2019-06-01T03:09:18.933Z,98702.39
2019-06-01T03:11:50.353Z,98703.24
2019-06-01T03:14:21.237Z,98701.39
2019-06-01T03:16:53.014Z,98700.16
2019-06-01T03:19:24.643Z,98703.42
2019-06-01T03:21:57.631Z,98699.61
2019-06-01T03:24:27.027Z,98691.25
2019-06-01T03:26:56.654Z,98696.17
2019-06-01T03:29:29.297Z,98693.94
2019-06-01T03:32:20.685Z,98697.72
2019-06-01T03:34:30.322Z,98693.58
2019-06-01T03:37:01.006Z,98699.84
2019-06-01T03:39:30.757Z,98697.58
2019-06-01T03:42:01.025Z,98697.58
2019-06-01T03:44:30.650Z,98700.41
2019-06-01T03:47:01.400Z,98698.75
2019-06-01T03:49:30.979Z,98697.72
2019-06-01T03:52:00.650Z,98697.20
2019-06-01T03:54:30.050Z,98698.27
2019-06-01T03:57:00.645Z,98703.42
2019-06-01T03:59:30.302Z,98705.22
2019-06-01T04:02:00.775Z,98706.81
2019-06-01T04:04:30.350Z,98702.64
2019-06-01T04:06:59.723Z,98703.17
2019-06-01T04:09:29.144Z,98705.20
2019-06-01T04:11:58.546Z,98706.98
2019-06-01T04:14:27.965Z,98711.46
2019-06-01T04:16:57.369Z,98708.89
2019-06-01T04:19:26.792Z,98712.37
2019-06-01T04:21:56.195Z,98709.61
2019-06-01T04:24:25.585Z,98720.40
2019-06-01T04:26:55.224Z,98716.55
2019-06-01T04:29:24.614Z,98710.27
2019-06-01T04:31:54.139Z,98712.59
2019-06-01T04:34:23.564Z,98709.99
2019-06-01T04:36:52.969Z,98710.23
2019-06-01T04:39:22.350Z,98708.80
2019-06-01T04:41:51.758Z,98704.48
2019-06-01T04:44:21.171Z,98704.09
2019-06-01T04:46:50.616Z,98709.39
2019-06-01T04:49:20.000Z,98712.53
2019-06-01T04:51:49.489Z,98705.60
2019-06-01T04:54:18.914Z,98706.93
2019-06-01T04:56:48.544Z,98709.17
2019-06-01T04:59:17.966Z,98702.55
2019-06-01T05:01:47.521Z,98707.05
2019-06-01T05:04:16.924Z,98699.59
2019-06-01T05:06:46.320Z,98698.50
2019-06-01T05:09:15.935Z,98698.33
2019-06-01T05:11:45.302Z,98700.39
2019-06-01T05:14:16.572Z,98702.89
2019-06-01T05:16:45.835Z,98698.92
2019-06-01T05:19:16.573Z,98702.54
2019-06-01T05:21:46.342Z,98702.16
2019-06-01T05:24:16.938Z,98701.73
2019-06-01T05:26:46.690Z,98706.67
2019-06-01T05:29:17.485Z,98707.27
2019-06-01T05:31:47.935Z,98702.56
2019-06-01T05:34:18.417Z,98701.57
2019-06-01T05:36:48.101Z,98709.70
2019-06-01T05:39:18.795Z,98706.47
2019-06-01T05:41:48.275Z,98709.19
2019-06-01T05:44:19.065Z,98709.06
2019-06-01T05:46:48.810Z,98700.22
2019-06-01T05:49:18.614Z,98702.20
2019-06-01T05:51:48.079Z,98701.42
2019-06-01T05:54:18.746Z,98704.30
2019-06-01T05:56:49.788Z,98701.58
2019-06-01T05:59:19.148Z,98703.14
2019-06-01T06:01:48.524Z,98704.78
2019-06-01T06:04:17.955Z,98704.28
2019-06-01T06:06:47.335Z,98703.83
2019-06-01T06:09:17.141Z,98706.73
2019-06-01T06:11:46.690Z,98710.81
2019-06-01T06:14:17.464Z,98701.12
2019-06-01T06:16:47.012Z,98713.70
2019-06-01T06:19:20.225Z,98707.75
2019-06-01T06:21:47.567Z,98706.97
2019-06-01T06:24:16.942Z,98705.48
2019-06-01T06:26:46.337Z,98703.27
2019-06-01T06:29:16.832Z,98701.94
2019-06-01T06:31:46.328Z,98710.47
2019-06-01T06:34:15.732Z,98712.16
2019-06-01T06:36:45.126Z,98705.01
2019-06-01T06:39:15.760Z,98710.63
2019-06-01T06:41:45.208Z,98703.13
2019-06-01T06:44:14.656Z,98715.58
2019-06-01T06:46:44.051Z,98711.64
2019-06-01T06:49:13.501Z,98710.05
2019-06-01T06:51:42.960Z,98714.78
2019-06-01T06:54:14.535Z,98717.05
2019-06-01T06:56:43.579Z,98712.48
2019-06-01T06:59:13.050Z,98708.14
2019-06-01T07:01:42.406Z,98712.98
2019-06-01T07:04:13.176Z,98706.58
2019-06-01T07:06:42.916Z,98704.48
2019-06-01T07:09:12.301Z,98708.82
2019-06-01T07:11:41.697Z,98705.55
2019-06-01T07:14:11.173Z,98707.71
2019-06-01T07:16:40.632Z,98711.71
2019-06-01T07:19:10.111Z,98714.92
2019-06-01T07:21:39.485Z,98714.23
2019-06-01T07:24:08.878Z,98714.28
2019-06-01T07:26:38.249Z,98709.31
2019-06-01T07:29:07.642Z,98707.94
2019-06-01T07:31:37.001Z,98706.36
2019-06-01T07:34:06.372Z,98707.27
2019-06-01T07:36:35.827Z,98710.95
2019-06-01T07:39:06.877Z,98705.61
2019-06-01T07:41:36.498Z,98710.41
2019-06-01T07:44:06.127Z,98705.02
2019-06-01T07:46:35.605Z,98706.62
2019-06-01T07:49:05.015Z,98707.28
2019-06-01T07:51:34.420Z,98702.02
2019-06-01T07:54:04.185Z,98701.56
2019-06-01T07:56:33.590Z,98696.73
2019-06-01T07:59:03.058Z,98701.73
2019-06-01T08:01:32.958Z,98701.47
2019-06-01T08:04:02.388Z,98693.23
2019-06-01T08:06:32.732Z,98695.83
2019-06-01T08:09:02.335Z,98683.98
2019-06-01T08:11:33.473Z,98685.09
2019-06-01T08:14:03.124Z,98682.78
2019-06-01T08:16:32.859Z,98682.50
2019-06-01T08:19:02.403Z,98682.78
2019-06-01T08:21:32.407Z,98685.19
2019-06-01T08:24:02.248Z,98686.16
2019-06-01T08:26:32.674Z,98686.97
2019-06-01T08:29:02.400Z,98674.82
2019-06-01T08:31:33.206Z,98678.10
2019-06-01T08:34:03.296Z,98670.37
2019-06-01T08:36:33.943Z,98669.95
2019-06-01T08:39:04.603Z,98673.72
2019-06-01T08:41:34.058Z,98663.58
2019-06-01T08:44:03.769Z,98664.10
2019-06-01T08:46:33.965Z,98663.78
2019-06-01T08:49:03.435Z,98663.30
2019-06-01T08:51:34.111Z,98661.56
2019-06-01T08:54:03.681Z,98661.94
2019-06-01T08:56:34.454Z,98656.88
2019-06-01T08:59:03.996Z,98660.84
2019-06-01T09:01:34.598Z,98654.19
2019-06-01T09:04:04.318Z,98653.19
2019-06-01T09:06:35.240Z,98649.25
2019-06-01T09:09:07.411Z,98642.16
2019-06-01T09:11:36.906Z,98645.86
2019-06-01T09:14:06.389Z,98635.01
2019-06-01T09:16:36.080Z,98642.34
2019-06-01T09:19:05.688Z,98642.55
2019-06-01T09:21:35.715Z,98640.58
2019-06-01T09:24:05.591Z,98633.42
2019-06-01T09:26:36.057Z,98640.20
2019-06-01T09:29:06.217Z,98645.00
2019-06-01T09:31:36.690Z,98638.84
2019-06-01T09:34:06.198Z,98644.50
2019-06-01T09:36:36.757Z,98644.77
2019-06-01T09:39:08.664Z,98636.19
2019-06-01T09:41:38.029Z,98639.86
2019-06-01T09:44:07.381Z,98639.86
2019-06-01T09:46:37.460Z,98634.34
2019-06-01T09:49:06.940Z,98632.02
2019-06-01T09:51:37.653Z,98628.09
2019-06-01T09:54:07.628Z,98632.77
2019-06-01T09:56:38.170Z,98625.16
2019-06-01T09:59:08.118Z,98629.87
2019-06-01T10:01:38.728Z,98624.04
2019-06-01T10:04:09.980Z,98617.55
2019-06-01T10:06:39.553Z,98622.31
2019-06-01T10:09:09.807Z,98619.64
2019-06-01T10:11:39.274Z,98625.06
2019-06-01T10:14:08.764Z,98615.63
2019-06-01T10:16:38.903Z,98617.10
2019-06-01T10:19:08.576Z,98616.68
2019-06-01T10:21:38.110Z,98615.87
2019-06-01T10:24:07.713Z,98605.89
2019-06-01T10:26:37.615Z,98607.70
2019-06-01T10:29:07.169Z,98607.52
2019-06-01T10:31:41.148Z,98609.81
2019-06-01T10:34:08.011Z,98605.89
2019-06-01T10:36:38.052Z,98604.27
2019-06-01T10:39:08.799Z,98609.58
2019-06-01T10:41:39.500Z,98604.82
2019-06-01T10:44:09.052Z,98598.48
2019-06-01T10:46:40.036Z,98592.03
2019-06-01T10:49:09.675Z,98592.60
2019-06-01T10:51:40.387Z,98592.22
2019-06-01T10:54:10.007Z,98593.91
2019-06-01T10:56:40.528Z,98595.56
2019-06-01T10:59:10.362Z,98588.69
2019-06-01T11:01:40.845Z,98587.70
2019-06-01T11:04:10.518Z,98585.16
2019-06-01T11:06:45.151Z,98578.69
2019-06-01T11:09:11.209Z,98570.83
2019-06-01T11:11:41.155Z,98584.44
2019-06-01T11:14:10.577Z,98570.87
2019-06-01T11:16:41.758Z,98576.73
2019-06-01T11:19:11.230Z,98573.74
2019-06-01T11:21:41.737Z,98565.93
2019-06-01T11:24:11.284Z,98564.39
2019-06-01T11:26:41.845Z,98567.52
2019-06-01T11:29:11.403Z,98562.05
2019-06-01T11:31:42.122Z,98563.23
2019-06-01T11:34:11.632Z,98555.50
2019-06-01T11:37:01.240Z,98558.42
2019-06-01T11:39:12.163Z,98548.98
2019-06-01T11:41:42.622Z,98540.26
2019-06-01T11:44:12.121Z,98537.64
2019-06-01T11:46:41.488Z,98532.45
2019-06-01T11:49:10.870Z,98530.06
2019-06-01T11:51:41.475Z,98522.57
2019-06-01T11:54:11.018Z,98520.39
2019-06-01T11:56:41.361Z,98517.17
2019-06-01T11:59:10.881Z,98516.28
2019-06-01T12:01:41.695Z,98510.36
2019-06-01T12:04:11.313Z,98501.04
2019-06-01T12:06:41.697Z,98499.08
2019-06-01T12:09:11.545Z,98495.66
2019-06-01T12:11:42.174Z,98500.03
2019-06-01T12:14:11.724Z,98485.81
2019-06-01T12:16:42.808Z,98491.83
2019-06-01T12:19:12.241Z,98486.55
2019-06-01T12:21:42.925Z,98487.59
2019-06-01T12:24:12.482Z,98486.63
2019-06-01T12:26:41.997Z,98479.92
2019-06-01T12:29:12.569Z,98479.97
2019-06-01T12:31:41.966Z,98483.95
2019-06-01T12:34:11.571Z,98477.10
2019-06-01T12:36:42.579Z,98479.27
2019-06-01T12:39:12.211Z,98471.66
2019-06-01T12:41:41.859Z,98459.25
2019-06-01T12:44:17.344Z,98458.94
2019-06-01T12:46:47.067Z,98463.47
2019-06-01T12:49:17.182Z,98463.11
2019-06-01T12:51:47.098Z,98461.58
2019-06-01T12:54:17.145Z,98460.58
2019-06-01T12:56:47.751Z,98464.78
2019-06-01T12:59:18.210Z,98461.42
2019-06-01T13:01:47.563Z,98457.77
2019-06-01T13:04:16.994Z,98456.09
2019-06-01T13:06:50.310Z,98461.23
2019-06-01T13:09:17.610Z,98444.71
2019-06-01T13:11:47.386Z,98447.20
2019-06-01T13:14:16.883Z,98445.49
2019-06-01T13:16:50.635Z,98442.08
2019-06-01T13:19:17.527Z,98438.39
2019-06-01T13:21:47.486Z,98436.63
2019-06-01T13:24:16.944Z,98424.65
2019-06-01T13:26:47.699Z,98425.51
2019-06-01T13:29:17.326Z,98421.06
2019-06-01T13:31:46.701Z,98419.98
2019-06-01T13:34:16.114Z,98415.43
2019-06-01T13:36:46.576Z,98422.68
2019-06-01T13:39:16.044Z,98415.87
2019-06-01T13:41:45.411Z,98418.46
2019-06-01T13:44:15.000Z,98422.47
2019-06-01T13:46:45.288Z,98422.28
2019-06-01T13:49:14.802Z,98418.23
2019-06-01T13:51:45.899Z,98422.73
2019-06-01T13:54:15.430Z,98421.14
2019-06-01T13:56:44.836Z,98412.02
2019-06-01T13:59:14.229Z,98411.75
2019-06-01T14:01:45.035Z,98410.98
2019-06-01T14:04:14.596Z,98408.69
2019-06-01T14:06:45.149Z,98401.53
2019-06-01T14:09:14.568Z,98392.30
2019-06-01T14:11:45.218Z,98397.66
2019-06-01T14:14:14.833Z,98398.42
2019-06-01T14:16:45.476Z,98391.27
2019-06-01T14:19:15.036Z,98395.34
2019-06-01T14:21:45.741Z,98397.15
2019-06-01T14:24:15.382Z,98391.06
2019-06-01T14:26:46.034Z,98392.06
2019-06-01T14:29:15.515Z,98393.17
2019-06-01T14:31:46.444Z,98388.86
2019-06-01T14:34:16.104Z,98392.78
2019-06-01T14:36:46.457Z,98389.17
2019-06-01T14:39:15.914Z,98384.09
2019-06-01T14:41:46.595Z,98381.75
2019-06-01T14:44:16.075Z,98374.05
2019-06-01T14:46:56.163Z,98372.33
2019-06-01T14:49:16.611Z,98372.75
2019-06-01T14:51:47.384Z,98374.97
2019-06-01T14:54:17.122Z,98376.51
2019-06-01T14:56:47.574Z,98371.14
2019-06-01T14:59:17.099Z,98368.44
2019-06-01T15:01:46.533Z,98360.58
2019-06-01T15:04:15.937Z,98361.39
2019-06-01T15:06:45.314Z,98357.05
2019-06-01T15:09:19.185Z,98366.14
2019-06-01T15:11:45.873Z,98349.07
2019-06-01T15:14:15.239Z,98348.69
2019-06-01T15:16:44.627Z,98350.25
2019-06-01T15:19:14.028Z,98339.97
2019-06-01T15:21:43.469Z,98342.28
2019-06-01T15:24:12.851Z,98345.81
2019-06-01T15:26:42.299Z,98336.91
2019-06-01T15:29:11.701Z,98338.64
2019-06-01T15:31:41.086Z,98324.55
2019-06-01T15:34:10.471Z,98335.86
2019-06-01T15:36:39.876Z,98332.89
2019-06-01T15:39:23.552Z,98325.84
2019-06-01T15:41:40.869Z,98329.78
2019-06-01T15:44:10.255Z,98328.52
2019-06-01T15:46:39.661Z,98323.98
2019-06-01T15:49:09.025Z,98316.94
2019-06-01T15:51:38.432Z,98314.25
2019-06-01T15:54:07.995Z,98311.56
2019-06-01T15:56:37.565Z,98313.02
2019-06-01T15:59:06.966Z,98310.63
2019-06-01T16:01:36.362Z,98312.06
2019-06-01T16:04:05.821Z,98305.78
2019-06-01T16:06:35.211Z,98308.30
2019-06-01T16:09:05.289Z,98300.83
2019-06-01T16:11:34.652Z,98302.04
2019-06-01T16:14:04.272Z,98300.11
2019-06-01T16:16:33.650Z,98304.55
2019-06-01T16:19:07.486Z,98301.64
2019-06-01T16:21:34.358Z,98300.67
2019-06-01T16:24:04.476Z,98297.19
2019-06-01T16:26:33.895Z,98297.41
2019-06-01T16:29:03.756Z,98297.70
2019-06-01T16:31:34.447Z,98299.82
2019-06-01T16:34:05.177Z,98294.37
2019-06-01T16:36:34.840Z,98293.23
2019-06-01T16:39:07.924Z,98292.56
2019-06-01T16:41:36.997Z,98292.08
2019-06-01T16:44:06.487Z,98287.02
2019-06-01T16:46:35.930Z,98284.75
2019-06-01T16:49:05.838Z,98289.02
2019-06-01T16:51:52.958Z,98279.95
2019-06-01T16:54:22.795Z,98284.07
2019-06-01T16:56:52.350Z,98283.63
2019-06-01T16:59:21.970Z,98283.18
2019-06-01T17:01:51.355Z,98278.19
2019-06-01T17:04:20.754Z,98282.68
2019-06-01T17:06:50.123Z,98275.61
2019-06-01T17:09:19.575Z,98274.64
2019-06-01T17:11:49.046Z,98281.05
2019-06-01T17:14:18.539Z,98276.06
2019-06-01T17:16:48.139Z,98274.06
2019-06-01T17:19:17.614Z,98272.72
2019-06-01T17:21:47.063Z,98272.91
2019-06-01T17:24:16.553Z,98266.24
2019-06-01T17:26:46.018Z,98269.14
2019-06-01T17:29:15.382Z,98272.05
2019-06-01T17:31:54.065Z,98264.36
2019-06-01T17:34:15.993Z,98275.11
2019-06-01T17:36:45.396Z,98264.87
2019-06-01T17:39:15.210Z,98272.62
2019-06-01T17:41:44.835Z,98273.64
2019-06-01T17:44:14.238Z,98271.75
2019-06-01T17:46:53.454Z,98270.53
2019-06-01T17:49:14.745Z,98266.80
2019-06-01T17:51:44.105Z,98269.21
2019-06-01T17:54:13.507Z,98265.11
2019-06-01T17:56:42.894Z,98262.74
2019-06-01T17:59:12.405Z,98267.78
2019-06-01T18:01:42.675Z,98264.95
2019-06-01T18:04:12.285Z,98261.14
2019-06-01T18:06:41.703Z,98265.44
2019-06-01T18:09:12.132Z,98260.64
2019-06-01T18:11:41.741Z,98270.50
2019-06-01T18:14:12.377Z,98268.17
2019-06-01T18:16:41.932Z,98267.67
2019-06-01T18:19:12.268Z,98261.84
2019-06-01T18:21:42.115Z,98265.66
2019-06-01T18:24:12.596Z,98262.83
2019-06-01T18:26:42.396Z,98265.12
2019-06-01T18:29:12.731Z,98263.91
2019-06-01T18:31:42.163Z,98264.39
2019-06-01T18:34:11.847Z,98268.44
2019-06-01T18:36:41.315Z,98270.05
2019-06-01T18:39:11.781Z,98274.39
2019-06-01T18:41:41.281Z,98274.17
2019-06-01T18:44:11.839Z,98274.72
2019-06-01T18:46:41.426Z,98280.20
2019-06-01T18:49:11.958Z,98271.85
2019-06-01T18:51:41.342Z,98272.78
2019-06-01T18:54:10.957Z,98273.47
2019-06-01T18:56:40.422Z,98271.98
2019-06-01T18:59:10.263Z,98274.54
2019-06-01T19:01:39.864Z,98274.98
2019-06-01T19:04:09.710Z,98274.94
2019-06-01T19:06:39.301Z,98278.79
2019-06-01T19:09:09.525Z,98278.33
2019-06-01T19:11:39.125Z,98277.52
2019-06-01T19:14:09.721Z,98273.21
2019-06-01T19:16:39.219Z,98285.87
2019-06-01T19:19:08.612Z,98279.65
2019-06-01T19:21:38.071Z,98283.14
2019-06-01T19:24:08.492Z,98285.73
2019-06-01T19:26:37.985Z,98284.22
2019-06-01T19:29:08.718Z,98289.34
2019-06-01T19:31:38.229Z,98294.88
2019-06-01T19:34:08.791Z,98297.39
2019-06-01T19:36:40.036Z,98297.19
2019-06-01T19:39:09.447Z,98306.92
2019-06-01T19:41:44.809Z,98310.15
2019-06-01T19:44:10.015Z,98310.05
2019-06-01T19:46:39.512Z,98316.97
2019-06-01T19:49:10.681Z,98321.06
2019-06-01T19:51:40.044Z,98320.83
2019-06-01T19:54:10.635Z,98318.75
2019-06-01T19:56:40.283Z,98324.99
2019-06-01T19:59:09.970Z,98322.69
2019-06-01T20:01:39.466Z,98330.02
2019-06-01T20:04:08.867Z,98323.59
2019-06-01T20:06:38.244Z,98324.45
2019-06-01T20:09:08.267Z,98321.36
2019-06-01T20:11:37.664Z,98330.62
2019-06-01T20:14:07.163Z,98326.33
2019-06-01T20:16:36.543Z,98325.12
2019-06-01T20:19:05.973Z,98327.71
2019-06-01T20:21:35.380Z,98331.09
2019-06-01T20:24:05.037Z,98330.16
2019-06-01T20:26:42.028Z,98326.52
2019-06-01T20:29:06.003Z,98334.05
2019-06-01T20:31:35.430Z,98330.78
2019-06-01T20:34:04.947Z,98336.75
2019-06-01T20:36:34.349Z,98335.22
2019-06-01T20:39:05.177Z,98331.61
2019-06-01T20:41:34.897Z,98336.21
2019-06-01T20:44:04.498Z,98337.52
2019-06-01T20:46:33.909Z,98339.73
2019-06-01T20:49:03.354Z,98339.16
2019-06-01T20:51:32.864Z,98348.52
2019-06-01T20:54:02.253Z,98351.46
2019-06-01T20:56:31.634Z,98345.92
2019-06-01T20:59:01.052Z,98346.53
2019-06-01T21:01:30.440Z,98349.34
2019-06-01T21:03:59.826Z,98346.91
2019-06-01T21:06:29.241Z,98346.21
2019-06-01T21:08:58.625Z,98350.61
2019-06-01T21:11:28.033Z,98357.72
2019-06-01T21:13:57.410Z,98348.67
2019-06-01T21:16:26.811Z,98349.58
2019-06-01T21:18:56.400Z,98348.49
2019-06-01T21:21:25.930Z,98350.33
2019-06-01T21:23:55.348Z,98353.90
2019-06-01T21:26:24.911Z,98346.21
2019-06-01T21:28:54.449Z,98352.30
2019-06-01T21:31:23.822Z,98355.78
2019-06-01T21:33:53.615Z,98354.77
2019-06-01T21:36:23.587Z,98362.80
2019-06-01T21:38:53.226Z,98356.80
2019-06-01T21:41:23.743Z,98358.84
2019-06-01T21:43:53.203Z,98355.89
2019-06-01T21:46:23.691Z,98356.59
2019-06-01T21:48:53.367Z,98353.86
2019-06-01T21:51:23.995Z,98352.16
2019-06-01T21:53:53.516Z,98361.87
2019-06-01T21:56:24.211Z,98355.55
2019-06-01T21:58:54.253Z,98358.73
2019-06-01T22:01:24.883Z,98357.38
2019-06-01T22:03:54.412Z,98360.11
2019-06-01T22:06:25.553Z,98358.52
2019-06-01T22:08:55.080Z,98354.91
2019-06-01T22:11:25.588Z,98359.36
2019-06-01T22:13:55.048Z,98362.11
2019-06-01T22:16:25.728Z,98357.44
2019-06-01T22:18:55.409Z,98354.83
2019-06-01T22:21:25.880Z,98351.71
2019-06-01T22:23:55.311Z,98351.62
2019-06-01T22:26:24.814Z,98354.48
2019-06-01T22:28:54.217Z,98359.95
2019-06-01T22:31:24.560Z,98358.12
2019-06-01T22:33:54.112Z,98362.45
2019-06-01T22:36:23.520Z,98363.23
2019-06-01T22:38:53.021Z,98369.17
2019-06-01T22:41:22.457Z,98364.60
2019-06-01T22:43:51.860Z,98356.84
2019-06-01T22:46:22.348Z,98358.77
2019-06-01T22:48:51.823Z,98351.94
2019-06-01T22:51:21.248Z,98355.70
2019-06-01T22:53:50.664Z,98350.13
2019-06-01T22:56:21.194Z,98354.20
2019-06-01T22:58:50.762Z,98358.98
2019-06-01T23:01:21.013Z,98359.68
2019-06-01T23:03:50.556Z,98347.82
2019-06-01T23:06:20.922Z,98352.78
2019-06-01T23:08:50.418Z,98351.40
2019-06-01T23:11:21.217Z,98346.17
2019-06-01T23:13:53.787Z,98346.17
2019-06-01T23:16:21.989Z,98345.03
2019-06-01T23:18:51.378Z,98340.34
2019-06-01T23:21:21.813Z,98334.09
2019-06-01T23:23:51.339Z,98339.98
2019-06-01T23:26:22.002Z,98330.66
2019-06-01T23:28:51.532Z,98327.22
2019-06-01T23:31:22.241Z,98335.86
2019-06-01T23:33:51.668Z,98334.89
2019-06-01T23:36:22.497Z,98333.77
2019-06-01T23:38:51.943Z,98333.95
2019-06-01T23:41:22.439Z,98337.59
2019-06-01T23:43:52.031Z,98335.97
2019-06-01T23:46:21.399Z,98334.61
2019-06-01T23:48:51.985Z,98331.66
2019-06-01T23:51:21.368Z,98323.86
2019-06-01T23:53:50.763Z,98323.13
2019-06-01T23:56:20.141Z,98319.49
2019-06-01T23:58:49.669Z,98322.83
